sensor_id;sensor_type;location;lat;lon;timestamp;P1;durP1;ratioP1;P2;durP2;ratioP2
15635;SDS011;7917;50.818;6.972;2024-02-21T00:00:36;15.45;;;7.47;;
15635;SDS011;7917;50.818;6.972;2024-02-21T00:03:06;12.75;;;7.20;;
15635;SDS011;7917;50.818;6.972;2024-02-21T00:05:35;14.52;;;7.07;;
15635;SDS011;7917;50.818;6.972;2024-02-21T00:08:02;18.05;;;8.63;;
15635;SDS011;7917;50.818;6.972;2024-02-21T00:10:28;15.75;;;7.68;;
15635;SDS011;7917;50.818;6.972;2024-02-21T00:12:56;11.80;;;7.07;;
15635;SDS011;7917;50.818;6.972;2024-02-21T00:15:24;14.43;;;7.05;;
15635;SDS011;7917;50.818;6.972;2024-02-21T00:17:51;15.57;;;6.78;;
15635;SDS011;7917;50.818;6.972;2024-02-21T00:20:18;11.63;;;6.68;;
15635;SDS011;7917;50.818;6.972;2024-02-21T00:22:45;17.17;;;6.97;;
15635;SDS011;7917;50.818;6.972;2024-02-21T00:25:17;17.67;;;8.93;;
15635;SDS011;7917;50.818;6.972;2024-02-21T00:27:43;18.90;;;6.88;;
15635;SDS011;7917;50.818;6.972;2024-02-21T00:30:11;15.82;;;7.95;;
15635;SDS011;7917;50.818;6.972;2024-02-21T00:32:38;17.00;;;7.10;;
15635;SDS011;7917;50.818;6.972;2024-02-21T00:35:07;24.08;;;7.60;;
15635;SDS011;7917;50.818;6.972;2024-02-21T00:37:43;18.63;;;7.63;;
15635;SDS011;7917;50.818;6.972;2024-02-21T00:40:11;13.30;;;6.90;;
15635;SDS011;7917;50.818;6.972;2024-02-21T00:42:41;13.55;;;6.68;;
15635;SDS011;7917;50.818;6.972;2024-02-21T00:45:08;15.73;;;7.47;;
15635;SDS011;7917;50.818;6.972;2024-02-21T00:47:35;17.13;;;7.85;;
15635;SDS011;7917;50.818;6.972;2024-02-21T00:50:01;13.18;;;6.28;;
15635;SDS011;7917;50.818;6.972;2024-02-21T00:52:29;18.17;;;7.47;;
15635;SDS011;7917;50.818;6.972;2024-02-21T00:54:55;18.10;;;8.35;;
15635;SDS011;7917;50.818;6.972;2024-02-21T00:57:22;12.43;;;6.22;;
15635;SDS011;7917;50.818;6.972;2024-02-21T00:59:49;17.77;;;6.28;;
15635;SDS011;7917;50.818;6.972;2024-02-21T01:02:15;18.90;;;6.90;;
15635;SDS011;7917;50.818;6.972;2024-02-21T01:04:42;18.60;;;8.20;;
15635;SDS011;7917;50.818;6.972;2024-02-21T01:07:08;16.65;;;6.97;;
15635;SDS011;7917;50.818;6.972;2024-02-21T01:09:36;19.55;;;7.72;;
15635;SDS011;7917;50.818;6.972;2024-02-21T01:12:02;15.38;;;6.65;;
15635;SDS011;7917;50.818;6.972;2024-02-21T01:14:29;12.70;;;6.95;;
15635;SDS011;7917;50.818;6.972;2024-02-21T01:16:55;13.73;;;7.13;;
15635;SDS011;7917;50.818;6.972;2024-02-21T01:19:22;14.15;;;6.60;;
15635;SDS011;7917;50.818;6.972;2024-02-21T01:21:48;16.30;;;7.22;;
15635;SDS011;7917;50.818;6.972;2024-02-21T01:24:15;13.73;;;6.72;;
15635;SDS011;7917;50.818;6.972;2024-02-21T01:26:42;15.05;;;6.82;;
15635;SDS011;7917;50.818;6.972;2024-02-21T01:29:08;17.00;;;6.70;;
15635;SDS011;7917;50.818;6.972;2024-02-21T01:31:35;19.75;;;6.63;;
15635;SDS011;7917;50.818;6.972;2024-02-21T01:34:01;14.15;;;7.22;;
15635;SDS011;7917;50.818;6.972;2024-02-21T01:36:28;16.65;;;7.57;;
15635;SDS011;7917;50.818;6.972;2024-02-21T01:38:54;21.20;;;7.40;;
15635;SDS011;7917;50.818;6.972;2024-02-21T01:41:20;12.05;;;6.88;;
15635;SDS011;7917;50.818;6.972;2024-02-21T01:43:48;17.23;;;7.75;;
15635;SDS011;7917;50.818;6.972;2024-02-21T01:46:14;16.92;;;6.60;;
15635;SDS011;7917;50.818;6.972;2024-02-21T01:48:41;20.35;;;6.97;;
15635;SDS011;7917;50.818;6.972;2024-02-21T01:51:07;17.17;;;6.45;;
15635;SDS011;7917;50.818;6.972;2024-02-21T01:53:35;13.75;;;7.25;;
15635;SDS011;7917;50.818;6.972;2024-02-21T01:56:04;19.85;;;7.50;;
15635;SDS011;7917;50.818;6.972;2024-02-21T01:58:31;19.05;;;7.57;;
15635;SDS011;7917;50.818;6.972;2024-02-21T02:01:02;15.60;;;6.25;;
15635;SDS011;7917;50.818;6.972;2024-02-21T02:03:29;17.20;;;6.63;;
15635;SDS011;7917;50.818;6.972;2024-02-21T02:05:57;24.45;;;8.38;;
15635;SDS011;7917;50.818;6.972;2024-02-21T02:08:23;18.52;;;7.43;;
15635;SDS011;7917;50.818;6.972;2024-02-21T02:10:50;17.77;;;7.25;;
15635;SDS011;7917;50.818;6.972;2024-02-21T02:13:18;10.70;;;6.63;;
15635;SDS011;7917;50.818;6.972;2024-02-21T02:15:46;20.77;;;8.07;;
15635;SDS011;7917;50.818;6.972;2024-02-21T02:18:15;22.70;;;8.73;;
15635;SDS011;7917;50.818;6.972;2024-02-21T02:20:42;12.90;;;6.75;;
15635;SDS011;7917;50.818;6.972;2024-02-21T02:23:10;16.10;;;7.03;;
15635;SDS011;7917;50.818;6.972;2024-02-21T02:25:38;14.35;;;6.05;;
15635;SDS011;7917;50.818;6.972;2024-02-21T02:28:05;13.18;;;6.72;;
15635;SDS011;7917;50.818;6.972;2024-02-21T02:30:32;15.48;;;6.70;;
15635;SDS011;7917;50.818;6.972;2024-02-21T02:32:59;13.38;;;6.88;;
15635;SDS011;7917;50.818;6.972;2024-02-21T02:35:28;15.52;;;6.90;;
15635;SDS011;7917;50.818;6.972;2024-02-21T02:37:54;17.48;;;6.15;;
15635;SDS011;7917;50.818;6.972;2024-02-21T02:40:20;18.73;;;7.47;;
15635;SDS011;7917;50.818;6.972;2024-02-21T02:42:49;15.77;;;7.30;;
15635;SDS011;7917;50.818;6.972;2024-02-21T02:45:16;14.43;;;6.85;;
15635;SDS011;7917;50.818;6.972;2024-02-21T02:47:44;14.50;;;6.55;;
15635;SDS011;7917;50.818;6.972;2024-02-21T02:50:11;17.60;;;6.07;;
15635;SDS011;7917;50.818;6.972;2024-02-21T02:52:38;14.15;;;6.95;;
15635;SDS011;7917;50.818;6.972;2024-02-21T02:55:05;15.45;;;6.50;;
15635;SDS011;7917;50.818;6.972;2024-02-21T02:57:33;18.65;;;6.07;;
15635;SDS011;7917;50.818;6.972;2024-02-21T03:00:00;18.85;;;6.25;;
15635;SDS011;7917;50.818;6.972;2024-02-21T03:02:26;14.45;;;5.82;;
15635;SDS011;7917;50.818;6.972;2024-02-21T03:04:53;17.83;;;6.47;;
15635;SDS011;7917;50.818;6.972;2024-02-21T03:07:19;11.52;;;6.07;;
15635;SDS011;7917;50.818;6.972;2024-02-21T03:09:46;16.38;;;7.43;;
15635;SDS011;7917;50.818;6.972;2024-02-21T03:12:13;15.10;;;6.80;;
15635;SDS011;7917;50.818;6.972;2024-02-21T03:14:44;15.02;;;7.80;;
15635;SDS011;7917;50.818;6.972;2024-02-21T03:17:11;14.23;;;7.07;;
15635;SDS011;7917;50.818;6.972;2024-02-21T03:19:37;10.20;;;6.32;;
15635;SDS011;7917;50.818;6.972;2024-02-21T03:22:04;18.17;;;6.40;;
15635;SDS011;7917;50.818;6.972;2024-02-21T03:24:31;17.15;;;6.85;;
15635;SDS011;7917;50.818;6.972;2024-02-21T03:26:59;15.50;;;6.03;;
15635;SDS011;7917;50.818;6.972;2024-02-21T03:29:25;17.63;;;5.50;;
15635;SDS011;7917;50.818;6.972;2024-02-21T03:31:51;14.85;;;7.20;;
15635;SDS011;7917;50.818;6.972;2024-02-21T03:34:18;16.65;;;6.10;;
15635;SDS011;7917;50.818;6.972;2024-02-21T03:36:45;18.92;;;6.78;;
15635;SDS011;7917;50.818;6.972;2024-02-21T03:39:11;15.82;;;7.03;;
15635;SDS011;7917;50.818;6.972;2024-02-21T03:41:40;15.30;;;6.82;;
15635;SDS011;7917;50.818;6.972;2024-02-21T03:44:06;16.55;;;6.35;;
15635;SDS011;7917;50.818;6.972;2024-02-21T03:46:32;11.85;;;6.28;;
15635;SDS011;7917;50.818;6.972;2024-02-21T03:48:59;14.27;;;6.43;;
15635;SDS011;7917;50.818;6.972;2024-02-21T03:51:26;14.93;;;6.25;;
15635;SDS011;7917;50.818;6.972;2024-02-21T03:53:53;15.85;;;5.97;;
15635;SDS011;7917;50.818;6.972;2024-02-21T03:56:19;13.60;;;5.90;;
15635;SDS011;7917;50.818;6.972;2024-02-21T03:58:46;16.08;;;6.30;;
15635;SDS011;7917;50.818;6.972;2024-02-21T04:04:35;11.38;;;5.75;;
15635;SDS011;7917;50.818;6.972;2024-02-21T04:07:03;14.15;;;6.57;;
15635;SDS011;7917;50.818;6.972;2024-02-21T04:09:31;16.42;;;5.88;;
15635;SDS011;7917;50.818;6.972;2024-02-21T04:12:00;13.13;;;5.50;;
15635;SDS011;7917;50.818;6.972;2024-02-21T04:14:27;14.40;;;5.88;;
15635;SDS011;7917;50.818;6.972;2024-02-21T04:16:54;15.65;;;5.97;;
15635;SDS011;7917;50.818;6.972;2024-02-21T04:19:21;17.60;;;5.85;;
15635;SDS011;7917;50.818;6.972;2024-02-21T04:21:47;15.23;;;6.03;;
15635;SDS011;7917;50.818;6.972;2024-02-21T04:24:15;11.90;;;5.90;;
15635;SDS011;7917;50.818;6.972;2024-02-21T04:26:43;11.40;;;6.07;;
15635;SDS011;7917;50.818;6.972;2024-02-21T04:29:10;11.50;;;5.75;;
15635;SDS011;7917;50.818;6.972;2024-02-21T04:31:37;14.25;;;6.90;;
15635;SDS011;7917;50.818;6.972;2024-02-21T04:34:05;12.98;;;5.88;;
15635;SDS011;7917;50.818;6.972;2024-02-21T04:36:32;12.27;;;5.43;;
15635;SDS011;7917;50.818;6.972;2024-02-21T04:38:59;13.32;;;5.80;;
15635;SDS011;7917;50.818;6.972;2024-02-21T04:41:28;13.40;;;6.57;;
15635;SDS011;7917;50.818;6.972;2024-02-21T04:43:55;17.77;;;6.00;;
15635;SDS011;7917;50.818;6.972;2024-02-21T04:46:22;14.07;;;5.80;;
15635;SDS011;7917;50.818;6.972;2024-02-21T04:48:48;15.45;;;6.65;;
15635;SDS011;7917;50.818;6.972;2024-02-21T04:51:15;18.73;;;8.07;;
15635;SDS011;7917;50.818;6.972;2024-02-21T04:53:42;13.07;;;4.97;;
15635;SDS011;7917;50.818;6.972;2024-02-21T04:56:14;10.90;;;5.70;;
15635;SDS011;7917;50.818;6.972;2024-02-21T04:58:42;17.00;;;6.88;;
15635;SDS011;7917;50.818;6.972;2024-02-21T05:01:09;12.13;;;5.72;;
15635;SDS011;7917;50.818;6.972;2024-02-21T05:03:36;15.15;;;5.93;;
15635;SDS011;7917;50.818;6.972;2024-02-21T05:06:05;13.02;;;7.05;;
15635;SDS011;7917;50.818;6.972;2024-02-21T05:08:33;12.02;;;6.00;;
15635;SDS011;7917;50.818;6.972;2024-02-21T05:11:00;11.02;;;5.65;;
15635;SDS011;7917;50.818;6.972;2024-02-21T05:13:26;14.23;;;5.25;;
15635;SDS011;7917;50.818;6.972;2024-02-21T05:15:54;12.82;;;5.65;;
15635;SDS011;7917;50.818;6.972;2024-02-21T05:18:21;11.80;;;5.18;;
15635;SDS011;7917;50.818;6.972;2024-02-21T05:20:47;12.23;;;5.57;;
15635;SDS011;7917;50.818;6.972;2024-02-21T05:23:14;11.80;;;5.68;;
15635;SDS011;7917;50.818;6.972;2024-02-21T05:25:41;11.93;;;5.75;;
15635;SDS011;7917;50.818;6.972;2024-02-21T05:28:08;16.58;;;6.05;;
15635;SDS011;7917;50.818;6.972;2024-02-21T05:30:35;10.20;;;5.15;;
15635;SDS011;7917;50.818;6.972;2024-02-21T05:33:06;14.57;;;5.97;;
15635;SDS011;7917;50.818;6.972;2024-02-21T05:35:33;10.93;;;5.60;;
15635;SDS011;7917;50.818;6.972;2024-02-21T05:38:00;13.93;;;4.95;;
15635;SDS011;7917;50.818;6.972;2024-02-21T05:40:32;12.13;;;5.53;;
15635;SDS011;7917;50.818;6.972;2024-02-21T05:42:59;15.27;;;5.60;;
15635;SDS011;7917;50.818;6.972;2024-02-21T05:45:26;14.63;;;5.03;;
15635;SDS011;7917;50.818;6.972;2024-02-21T05:47:55;11.95;;;5.03;;
15635;SDS011;7917;50.818;6.972;2024-02-21T05:50:23;11.95;;;5.20;;
15635;SDS011;7917;50.818;6.972;2024-02-21T05:52:51;9.55;;;4.78;;
15635;SDS011;7917;50.818;6.972;2024-02-21T05:55:20;9.02;;;4.90;;
15635;SDS011;7917;50.818;6.972;2024-02-21T05:57:47;15.13;;;6.10;;
15635;SDS011;7917;50.818;6.972;2024-02-21T06:00:14;10.93;;;5.65;;
15635;SDS011;7917;50.818;6.972;2024-02-21T06:02:42;16.20;;;6.95;;
15635;SDS011;7917;50.818;6.972;2024-02-21T06:05:09;13.38;;;6.13;;
15635;SDS011;7917;50.818;6.972;2024-02-21T06:07:36;11.38;;;6.20;;
15635;SDS011;7917;50.818;6.972;2024-02-21T06:10:05;12.50;;;5.90;;
15635;SDS011;7917;50.818;6.972;2024-02-21T06:12:32;14.35;;;6.57;;
15635;SDS011;7917;50.818;6.972;2024-02-21T06:14:59;9.77;;;5.20;;
15635;SDS011;7917;50.818;6.972;2024-02-21T06:17:28;9.85;;;4.80;;
15635;SDS011;7917;50.818;6.972;2024-02-21T06:19:54;16.67;;;6.85;;
15635;SDS011;7917;50.818;6.972;2024-02-21T06:22:21;12.52;;;4.75;;
15635;SDS011;7917;50.818;6.972;2024-02-21T06:24:49;12.80;;;4.72;;
15635;SDS011;7917;50.818;6.972;2024-02-21T06:27:15;11.48;;;5.05;;
15635;SDS011;7917;50.818;6.972;2024-02-21T06:29:42;12.05;;;4.60;;
15635;SDS011;7917;50.818;6.972;2024-02-21T06:32:09;14.63;;;5.70;;
15635;SDS011;7917;50.818;6.972;2024-02-21T06:34:36;13.15;;;6.38;;
15635;SDS011;7917;50.818;6.972;2024-02-21T06:37:03;16.42;;;5.05;;
15635;SDS011;7917;50.818;6.972;2024-02-21T06:39:30;9.70;;;5.18;;
15635;SDS011;7917;50.818;6.972;2024-02-21T06:41:58;11.60;;;4.85;;
15635;SDS011;7917;50.818;6.972;2024-02-21T06:44:25;9.35;;;4.28;;
15635;SDS011;7917;50.818;6.972;2024-02-21T06:46:53;10.00;;;4.55;;
15635;SDS011;7917;50.818;6.972;2024-02-21T06:49:20;10.73;;;4.43;;
15635;SDS011;7917;50.818;6.972;2024-02-21T06:51:47;10.70;;;4.65;;
15635;SDS011;7917;50.818;6.972;2024-02-21T06:54:14;10.85;;;4.22;;
15635;SDS011;7917;50.818;6.972;2024-02-21T06:56:40;15.32;;;4.40;;
15635;SDS011;7917;50.818;6.972;2024-02-21T06:59:08;12.23;;;3.95;;
15635;SDS011;7917;50.818;6.972;2024-02-21T07:01:36;13.02;;;4.55;;
15635;SDS011;7917;50.818;6.972;2024-02-21T07:04:02;11.43;;;4.68;;
15635;SDS011;7917;50.818;6.972;2024-02-21T07:06:29;9.07;;;4.25;;
15635;SDS011;7917;50.818;6.972;2024-02-21T07:09:02;11.65;;;4.57;;
15635;SDS011;7917;50.818;6.972;2024-02-21T07:11:28;9.65;;;4.20;;
15635;SDS011;7917;50.818;6.972;2024-02-21T07:13:55;13.27;;;4.28;;
15635;SDS011;7917;50.818;6.972;2024-02-21T07:18:51;9.55;;;4.05;;
15635;SDS011;7917;50.818;6.972;2024-02-21T07:21:18;12.25;;;4.30;;
15635;SDS011;7917;50.818;6.972;2024-02-21T07:23:45;10.90;;;4.47;;
15635;SDS011;7917;50.818;6.972;2024-02-21T07:26:12;15.43;;;5.07;;
15635;SDS011;7917;50.818;6.972;2024-02-21T07:28:39;8.05;;;4.30;;
15635;SDS011;7917;50.818;6.972;2024-02-21T07:31:06;11.10;;;4.68;;
15635;SDS011;7917;50.818;6.972;2024-02-21T07:33:33;11.38;;;4.95;;
15635;SDS011;7917;50.818;6.972;2024-02-21T07:36:00;12.90;;;4.70;;
15635;SDS011;7917;50.818;6.972;2024-02-21T07:38:31;11.02;;;4.30;;
15635;SDS011;7917;50.818;6.972;2024-02-21T07:40:58;13.02;;;4.82;;
15635;SDS011;7917;50.818;6.972;2024-02-21T07:43:25;13.52;;;4.30;;
15635;SDS011;7917;50.818;6.972;2024-02-21T07:45:53;16.73;;;4.68;;
15635;SDS011;7917;50.818;6.972;2024-02-21T07:48:20;11.80;;;4.72;;
15635;SDS011;7917;50.818;6.972;2024-02-21T07:50:50;11.38;;;5.00;;
15635;SDS011;7917;50.818;6.972;2024-02-21T07:53:17;16.35;;;6.13;;
15635;SDS011;7917;50.818;6.972;2024-02-21T07:55:45;11.02;;;4.95;;
15635;SDS011;7917;50.818;6.972;2024-02-21T07:58:12;13.70;;;4.90;;
15635;SDS011;7917;50.818;6.972;2024-02-21T08:00:39;11.57;;;5.18;;
15635;SDS011;7917;50.818;6.972;2024-02-21T08:03:06;14.68;;;6.32;;
15635;SDS011;7917;50.818;6.972;2024-02-21T08:05:34;14.13;;;5.75;;
15635;SDS011;7917;50.818;6.972;2024-02-21T08:08:02;13.43;;;5.50;;
15635;SDS011;7917;50.818;6.972;2024-02-21T08:10:29;15.25;;;5.53;;
15635;SDS011;7917;50.818;6.972;2024-02-21T08:12:56;9.38;;;5.03;;
15635;SDS011;7917;50.818;6.972;2024-02-21T08:15:23;13.52;;;5.60;;
15635;SDS011;7917;50.818;6.972;2024-02-21T08:17:53;13.02;;;5.65;;
15635;SDS011;7917;50.818;6.972;2024-02-21T08:20:24;11.82;;;4.90;;
15635;SDS011;7917;50.818;6.972;2024-02-21T08:22:51;11.68;;;5.60;;
15635;SDS011;7917;50.818;6.972;2024-02-21T08:25:18;10.27;;;4.65;;
15635;SDS011;7917;50.818;6.972;2024-02-21T08:27:45;13.40;;;5.65;;
15635;SDS011;7917;50.818;6.972;2024-02-21T08:30:12;10.57;;;4.97;;
15635;SDS011;7917;50.818;6.972;2024-02-21T08:32:40;12.65;;;5.80;;
15635;SDS011;7917;50.818;6.972;2024-02-21T08:35:07;11.23;;;4.85;;
15635;SDS011;7917;50.818;6.972;2024-02-21T08:37:34;13.13;;;6.03;;
15635;SDS011;7917;50.818;6.972;2024-02-21T08:40:01;14.90;;;5.40;;
15635;SDS011;7917;50.818;6.972;2024-02-21T08:42:34;18.55;;;4.95;;
15635;SDS011;7917;50.818;6.972;2024-02-21T08:45:01;15.63;;;5.40;;
15635;SDS011;7917;50.818;6.972;2024-02-21T08:47:28;9.30;;;4.43;;
15635;SDS011;7917;50.818;6.972;2024-02-21T08:49:55;12.02;;;5.15;;
15635;SDS011;7917;50.818;6.972;2024-02-21T08:52:22;13.90;;;4.95;;
15635;SDS011;7917;50.818;6.972;2024-02-21T08:54:49;12.00;;;4.55;;
15635;SDS011;7917;50.818;6.972;2024-02-21T08:57:18;11.82;;;4.45;;
15635;SDS011;7917;50.818;6.972;2024-02-21T08:59:46;12.05;;;5.63;;
15635;SDS011;7917;50.818;6.972;2024-02-21T09:02:13;10.77;;;4.60;;
15635;SDS011;7917;50.818;6.972;2024-02-21T09:04:41;11.90;;;4.40;;
15635;SDS011;7917;50.818;6.972;2024-02-21T09:07:09;8.02;;;4.10;;
15635;SDS011;7917;50.818;6.972;2024-02-21T09:09:36;13.57;;;5.22;;
15635;SDS011;7917;50.818;6.972;2024-02-21T09:12:04;12.30;;;5.43;;
15635;SDS011;7917;50.818;6.972;2024-02-21T09:14:32;9.30;;;5.10;;
15635;SDS011;7917;50.818;6.972;2024-02-21T09:17:00;9.38;;;4.47;;
15635;SDS011;7917;50.818;6.972;2024-02-21T09:19:27;11.23;;;4.70;;
15635;SDS011;7917;50.818;6.972;2024-02-21T09:21:55;11.00;;;3.97;;
15635;SDS011;7917;50.818;6.972;2024-02-21T09:24:21;9.07;;;4.78;;
15635;SDS011;7917;50.818;6.972;2024-02-21T09:26:48;9.23;;;4.13;;
15635;SDS011;7917;50.818;6.972;2024-02-21T09:29:15;10.55;;;4.47;;
15635;SDS011;7917;50.818;6.972;2024-02-21T09:31:42;10.50;;;4.35;;
15635;SDS011;7917;50.818;6.972;2024-02-21T09:34:10;13.48;;;4.90;;
15635;SDS011;7917;50.818;6.972;2024-02-21T09:36:37;14.63;;;5.03;;
15635;SDS011;7917;50.818;6.972;2024-02-21T09:39:05;11.00;;;4.57;;
15635;SDS011;7917;50.818;6.972;2024-02-21T09:41:32;13.07;;;4.18;;
15635;SDS011;7917;50.818;6.972;2024-02-21T09:44:06;12.15;;;3.97;;
15635;SDS011;7917;50.818;6.972;2024-02-21T09:46:39;10.55;;;3.67;;
15635;SDS011;7917;50.818;6.972;2024-02-21T09:49:18;9.75;;;3.78;;
15635;SDS011;7917;50.818;6.972;2024-02-21T09:51:52;13.05;;;4.35;;
15635;SDS011;7917;50.818;6.972;2024-02-21T09:54:21;9.55;;;3.90;;
15635;SDS011;7917;50.818;6.972;2024-02-21T09:56:48;8.90;;;4.00;;
15635;SDS011;7917;50.818;6.972;2024-02-21T09:59:15;8.55;;;3.60;;
15635;SDS011;7917;50.818;6.972;2024-02-21T10:01:43;8.48;;;4.28;;
15635;SDS011;7917;50.818;6.972;2024-02-21T10:04:12;8.80;;;3.92;;
15635;SDS011;7917;50.818;6.972;2024-02-21T10:06:40;9.05;;;4.60;;
15635;SDS011;7917;50.818;6.972;2024-02-21T10:09:07;8.15;;;3.97;;
15635;SDS011;7917;50.818;6.972;2024-02-21T10:11:34;8.57;;;3.50;;
15635;SDS011;7917;50.818;6.972;2024-02-21T10:14:05;8.88;;;3.63;;
15635;SDS011;7917;50.818;6.972;2024-02-21T10:16:32;11.18;;;3.85;;
15635;SDS011;7917;50.818;6.972;2024-02-21T10:18:59;6.47;;;3.17;;
15635;SDS011;7917;50.818;6.972;2024-02-21T10:21:26;9.48;;;3.97;;
15635;SDS011;7917;50.818;6.972;2024-02-21T10:23:55;7.97;;;3.92;;
15635;SDS011;7917;50.818;6.972;2024-02-21T10:26:22;9.95;;;3.25;;
15635;SDS011;7917;50.818;6.972;2024-02-21T10:28:49;9.98;;;3.38;;
15635;SDS011;7917;50.818;6.972;2024-02-21T10:31:23;7.28;;;3.53;;
15635;SDS011;7917;50.818;6.972;2024-02-21T10:33:54;11.88;;;3.25;;
15635;SDS011;7917;50.818;6.972;2024-02-21T10:36:22;9.45;;;3.20;;
15635;SDS011;7917;50.818;6.972;2024-02-21T10:38:50;8.07;;;3.50;;
15635;SDS011;7917;50.818;6.972;2024-02-21T10:41:21;11.05;;;4.40;;
15635;SDS011;7917;50.818;6.972;2024-02-21T10:43:52;5.63;;;3.33;;
15635;SDS011;7917;50.818;6.972;2024-02-21T10:46:25;8.25;;;3.33;;
15635;SDS011;7917;50.818;6.972;2024-02-21T10:49:01;6.40;;;3.28;;
15635;SDS011;7917;50.818;6.972;2024-02-21T10:51:40;10.05;;;3.13;;
15635;SDS011;7917;50.818;6.972;2024-02-21T10:54:13;9.05;;;3.60;;
15635;SDS011;7917;50.818;6.972;2024-02-21T10:56:52;8.68;;;3.00;;
15635;SDS011;7917;50.818;6.972;2024-02-21T10:59:22;7.78;;;2.90;;
15635;SDS011;7917;50.818;6.972;2024-02-21T11:01:51;9.82;;;3.40;;
15635;SDS011;7917;50.818;6.972;2024-02-21T11:04:19;8.43;;;3.22;;
15635;SDS011;7917;50.818;6.972;2024-02-21T11:06:47;7.18;;;3.22;;
15635;SDS011;7917;50.818;6.972;2024-02-21T11:09:18;11.32;;;2.92;;
15635;SDS011;7917;50.818;6.972;2024-02-21T11:11:57;5.93;;;3.10;;
15635;SDS011;7917;50.818;6.972;2024-02-21T11:14:26;9.30;;;3.42;;
15635;SDS011;7917;50.818;6.972;2024-02-21T11:16:53;8.77;;;3.15;;
15635;SDS011;7917;50.818;6.972;2024-02-21T11:19:22;6.30;;;3.35;;
15635;SDS011;7917;50.818;6.972;2024-02-21T11:21:51;7.05;;;2.92;;
15635;SDS011;7917;50.818;6.972;2024-02-21T11:24:26;8.07;;;3.50;;
15635;SDS011;7917;50.818;6.972;2024-02-21T11:26:54;14.15;;;3.47;;
15635;SDS011;7917;50.818;6.972;2024-02-21T11:29:26;8.85;;;2.85;;
15635;SDS011;7917;50.818;6.972;2024-02-21T11:31:54;8.38;;;3.33;;
15635;SDS011;7917;50.818;6.972;2024-02-21T11:34:22;7.50;;;2.83;;
15635;SDS011;7917;50.818;6.972;2024-02-21T11:36:51;6.95;;;2.63;;
15635;SDS011;7917;50.818;6.972;2024-02-21T11:39:19;6.60;;;3.05;;
15635;SDS011;7917;50.818;6.972;2024-02-21T11:41:47;4.95;;;2.88;;
15635;SDS011;7917;50.818;6.972;2024-02-21T11:44:29;6.75;;;2.85;;
15635;SDS011;7917;50.818;6.972;2024-02-21T11:46:56;8.88;;;3.03;;
15635;SDS011;7917;50.818;6.972;2024-02-21T11:49:24;5.32;;;2.50;;
15635;SDS011;7917;50.818;6.972;2024-02-21T11:51:57;7.07;;;3.95;;
15635;SDS011;7917;50.818;6.972;2024-02-21T11:54:25;7.15;;;3.10;;
15635;SDS011;7917;50.818;6.972;2024-02-21T11:56:52;7.70;;;2.80;;
15635;SDS011;7917;50.818;6.972;2024-02-21T11:59:19;9.32;;;2.85;;
15635;SDS011;7917;50.818;6.972;2024-02-21T12:01:47;8.30;;;2.70;;
15635;SDS011;7917;50.818;6.972;2024-02-21T12:04:14;7.88;;;3.22;;
15635;SDS011;7917;50.818;6.972;2024-02-21T12:06:43;4.82;;;2.40;;
15635;SDS011;7917;50.818;6.972;2024-02-21T12:09:13;5.78;;;2.90;;
15635;SDS011;7917;50.818;6.972;2024-02-21T12:11:41;5.18;;;2.80;;
15635;SDS011;7917;50.818;6.972;2024-02-21T12:14:09;11.32;;;3.28;;
15635;SDS011;7917;50.818;6.972;2024-02-21T12:16:37;9.80;;;3.42;;
15635;SDS011;7917;50.818;6.972;2024-02-21T12:19:04;13.10;;;4.20;;
15635;SDS011;7917;50.818;6.972;2024-02-21T12:21:32;10.90;;;3.67;;
15635;SDS011;7917;50.818;6.972;2024-02-21T12:24:11;14.13;;;3.75;;
15635;SDS011;7917;50.818;6.972;2024-02-21T12:26:39;8.73;;;3.25;;
15635;SDS011;7917;50.818;6.972;2024-02-21T12:29:06;8.93;;;3.50;;
15635;SDS011;7917;50.818;6.972;2024-02-21T12:31:34;11.63;;;3.58;;
15635;SDS011;7917;50.818;6.972;2024-02-21T12:34:01;9.75;;;3.80;;
15635;SDS011;7917;50.818;6.972;2024-02-21T12:36:30;10.63;;;3.70;;
15635;SDS011;7917;50.818;6.972;2024-02-21T12:38:57;9.13;;;4.28;;
15635;SDS011;7917;50.818;6.972;2024-02-21T12:41:24;6.82;;;3.17;;
15635;SDS011;7917;50.818;6.972;2024-02-21T12:43:52;7.30;;;3.20;;
15635;SDS011;7917;50.818;6.972;2024-02-21T12:46:19;9.02;;;3.55;;
15635;SDS011;7917;50.818;6.972;2024-02-21T12:48:46;8.32;;;3.97;;
15635;SDS011;7917;50.818;6.972;2024-02-21T12:51:14;6.35;;;3.00;;
15635;SDS011;7917;50.818;6.972;2024-02-21T12:53:42;8.30;;;3.42;;
15635;SDS011;7917;50.818;6.972;2024-02-21T12:56:09;6.40;;;3.38;;
15635;SDS011;7917;50.818;6.972;2024-02-21T12:58:36;8.65;;;3.03;;
15635;SDS011;7917;50.818;6.972;2024-02-21T13:01:03;6.95;;;3.03;;
15635;SDS011;7917;50.818;6.972;2024-02-21T13:03:30;10.07;;;3.28;;
15635;SDS011;7917;50.818;6.972;2024-02-21T13:05:58;5.43;;;3.38;;
15635;SDS011;7917;50.818;6.972;2024-02-21T13:08:26;6.20;;;3.00;;
15635;SDS011;7917;50.818;6.972;2024-02-21T13:10:53;9.25;;;3.97;;
15635;SDS011;7917;50.818;6.972;2024-02-21T13:13:20;10.13;;;3.80;;
15635;SDS011;7917;50.818;6.972;2024-02-21T13:15:50;11.98;;;3.50;;
15635;SDS011;7917;50.818;6.972;2024-02-21T13:18:18;9.57;;;3.58;;
15635;SDS011;7917;50.818;6.972;2024-02-21T13:20:45;7.95;;;3.38;;
15635;SDS011;7917;50.818;6.972;2024-02-21T13:23:13;8.23;;;2.92;;
15635;SDS011;7917;50.818;6.972;2024-02-21T13:25:40;8.88;;;3.33;;
15635;SDS011;7917;50.818;6.972;2024-02-21T13:28:10;9.52;;;3.92;;
15635;SDS011;7917;50.818;6.972;2024-02-21T13:30:37;11.15;;;3.63;;
15635;SDS011;7917;50.818;6.972;2024-02-21T13:33:05;6.82;;;3.22;;
15635;SDS011;7917;50.818;6.972;2024-02-21T13:35:35;7.50;;;3.50;;
15635;SDS011;7917;50.818;6.972;2024-02-21T13:38:03;7.70;;;3.05;;
15635;SDS011;7917;50.818;6.972;2024-02-21T13:40:31;7.78;;;3.30;;
15635;SDS011;7917;50.818;6.972;2024-02-21T13:42:58;9.50;;;3.00;;
15635;SDS011;7917;50.818;6.972;2024-02-21T13:45:27;9.90;;;3.13;;
15635;SDS011;7917;50.818;6.972;2024-02-21T13:47:54;9.80;;;3.40;;
15635;SDS011;7917;50.818;6.972;2024-02-21T13:50:27;4.97;;;2.90;;
15635;SDS011;7917;50.818;6.972;2024-02-21T13:52:57;8.00;;;3.33;;
15635;SDS011;7917;50.818;6.972;2024-02-21T13:55:24;9.70;;;4.03;;
15635;SDS011;7917;50.818;6.972;2024-02-21T13:57:51;7.55;;;3.30;;
15635;SDS011;7917;50.818;6.972;2024-02-21T14:00:19;7.57;;;2.35;;
15635;SDS011;7917;50.818;6.972;2024-02-21T14:02:47;8.27;;;2.90;;
15635;SDS011;7917;50.818;6.972;2024-02-21T14:05:14;7.47;;;3.17;;
15635;SDS011;7917;50.818;6.972;2024-02-21T14:07:41;5.93;;;2.60;;
15635;SDS011;7917;50.818;6.972;2024-02-21T14:10:11;8.52;;;3.17;;
15635;SDS011;7917;50.818;6.972;2024-02-21T14:12:38;8.10;;;2.78;;
15635;SDS011;7917;50.818;6.972;2024-02-21T14:15:05;8.23;;;2.67;;
15635;SDS011;7917;50.818;6.972;2024-02-21T14:17:34;5.95;;;2.75;;
15635;SDS011;7917;50.818;6.972;2024-02-21T14:20:02;8.18;;;2.88;;
15635;SDS011;7917;50.818;6.972;2024-02-21T14:22:30;5.68;;;2.75;;
15635;SDS011;7917;50.818;6.972;2024-02-21T14:24:57;7.70;;;2.80;;
15635;SDS011;7917;50.818;6.972;2024-02-21T14:27:24;7.70;;;3.25;;
15635;SDS011;7917;50.818;6.972;2024-02-21T14:29:51;9.73;;;3.42;;
15635;SDS011;7917;50.818;6.972;2024-02-21T14:32:21;7.10;;;3.70;;
15635;SDS011;7917;50.818;6.972;2024-02-21T14:34:48;9.45;;;2.65;;
15635;SDS011;7917;50.818;6.972;2024-02-21T14:37:15;4.68;;;2.65;;
15635;SDS011;7917;50.818;6.972;2024-02-21T14:39:42;4.90;;;2.95;;
15635;SDS011;7917;50.818;6.972;2024-02-21T14:42:09;7.78;;;2.67;;
15635;SDS011;7917;50.818;6.972;2024-02-21T14:44:37;5.97;;;2.78;;
15635;SDS011;7917;50.818;6.972;2024-02-21T14:47:04;10.80;;;2.90;;
15635;SDS011;7917;50.818;6.972;2024-02-21T14:49:32;7.55;;;3.25;;
15635;SDS011;7917;50.818;6.972;2024-02-21T14:51:59;7.90;;;2.95;;
15635;SDS011;7917;50.818;6.972;2024-02-21T14:54:27;7.13;;;2.95;;
15635;SDS011;7917;50.818;6.972;2024-02-21T14:56:54;6.53;;;2.70;;
15635;SDS011;7917;50.818;6.972;2024-02-21T14:59:21;5.20;;;2.83;;
15635;SDS011;7917;50.818;6.972;2024-02-21T15:01:48;5.38;;;2.58;;